Time;durP1;ratioP1;P1;durP2;ratioP2;P2;SDS_P1;SDS_P2;PMS_P1;PMS_P2;Temp;Humidity;BMP_temperature;BMP_pressure;BME280_temperature;BME280_humidity;BME280_pressure;Samples;Min_cycle;Max_cycle;Signal;HPM_P1;HPM_P2
2022/08/27 00:00:17;;;;;;;25.25;21.70;;;18.40;99.90;;;;;;5115010;28;20568;-87
2022/08/27 00:02:45;;;;;;;22.73;18.08;;;18.30;99.90;;;;;;5100656;27;20614;-87
2022/08/27 00:05:14;;;;;;;18.73;16.35;;;18.20;99.90;;;;;;5109543;28;20214;-87
2022/08/27 00:07:43;;;;;;;14.05;12.25;;;18.20;99.90;;;;;;5103959;27;20629;-87
2022/08/27 00:10:14;;;;;;;17.75;13.23;;;18.20;99.90;;;;;;5111847;28;20208;-87
2022/08/27 00:12:41;;;;;;;17.02;15.05;;;18.20;99.90;;;;;;5105482;28;20200;-87
2022/08/27 00:15:10;;;;;;;15.43;13.15;;;18.10;99.90;;;;;;5106304;27;20206;-87
2022/08/27 00:17:37;;;;;;;19.80;17.60;;;18.10;99.90;;;;;;5103474;28;20235;-87
2022/08/27 00:20:06;;;;;;;17.60;11.38;;;18.00;99.90;;;;;;5108216;27;20204;-87
2022/08/27 00:22:33;;;;;;;12.93;10.45;;;17.90;99.90;;;;;;5113526;28;20232;-88
2022/08/27 00:25:01;;;;;;;19.20;14.18;;;17.80;99.90;;;;;;5118032;28;20531;-87
2022/08/27 00:27:28;;;;;;;19.83;13.35;;;17.80;99.90;;;;;;5115999;27;20196;-87
2022/08/27 00:29:55;;;;;;;19.83;15.40;;;17.80;99.90;;;;;;5117911;28;20200;-87
2022/08/27 00:32:22;;;;;;;14.73;10.98;;;17.90;99.90;;;;;;5114411;28;20298;-87
2022/08/27 00:34:49;;;;;;;16.08;11.23;;;17.90;99.90;;;;;;5111576;28;20192;-87
2022/08/27 00:37:15;;;;;;;15.15;12.05;;;17.90;99.90;;;;;;5113856;28;20215;-87
2022/08/27 00:39:42;;;;;;;16.20;11.98;;;17.80;99.90;;;;;;5097715;28;20228;-87
2022/08/27 00:42:11;;;;;;;21.67;18.20;;;17.70;99.90;;;;;;5097249;28;20201;-87
2022/08/27 00:44:38;;;;;;;13.75;8.27;;;17.70;99.90;;;;;;5101198;28;20219;-87
2022/08/27 00:47:10;;;;;;;11.80;7.90;;;17.60;99.90;;;;;;5114571;28;20196;-87
2022/08/27 00:49:41;;;;;;;19.20;16.90;;;17.50;99.90;;;;;;5114497;28;20200;-87
2022/08/27 00:52:13;;;;;;;10.20;8.82;;;17.50;99.90;;;;;;5104118;28;20210;-87
2022/08/27 00:54:40;;;;;;;12.43;8.13;;;17.50;99.90;;;;;;5112886;28;20192;-87
2022/08/27 00:57:07;;;;;;;20.08;11.63;;;17.50;99.90;;;;;;5114409;28;20200;-87
2022/08/27 00:59:36;;;;;;;12.73;11.25;;;17.40;99.90;;;;;;5113586;28;20702;-87
2022/08/27 01:02:18;;;;;;;13.05;9.73;;;17.40;99.90;;;;;;5114199;28;20204;-87
2022/08/27 01:04:48;;;;;;;13.30;9.45;;;17.50;99.90;;;;;;5111430;28;20200;-87
2022/08/27 01:07:15;;;;;;;11.23;8.60;;;17.60;99.90;;;;;;5114020;28;20210;-87
2022/08/27 01:09:43;;;;;;;11.27;7.93;;;17.70;99.90;;;;;;5102884;28;20205;-87
2022/08/27 01:12:11;;;;;;;12.38;9.48;;;17.70;99.90;;;;;;5101599;28;20196;-87
2022/08/27 01:14:40;;;;;;;13.73;8.68;;;17.70;99.90;;;;;;5114891;28;20196;-87
2022/08/27 01:17:09;;;;;;;12.77;10.57;;;17.60;99.90;;;;;;5110633;28;20204;-87
2022/08/27 01:19:41;;;;;;;13.68;8.57;;;17.60;99.90;;;;;;5104833;28;20224;-87
2022/08/27 01:22:15;;;;;;;9.10;7.65;;;17.60;99.90;;;;;;5112541;28;20200;-87
2022/08/27 01:24:46;;;;;;;10.82;7.93;;;17.50;99.90;;;;;;5105764;28;20562;-87
2022/08/27 01:27:17;;;;;;;15.30;10.32;;;17.40;99.90;;;;;;5107495;28;20247;-87
2022/08/27 01:29:45;;;;;;;11.50;8.27;;;17.40;99.90;;;;;;5094538;28;20201;-87
2022/08/27 01:32:15;;;;;;;9.70;8.25;;;17.40;99.90;;;;;;5108678;28;20200;-87
2022/08/27 01:34:42;;;;;;;14.18;8.73;;;17.40;99.90;;;;;;5112423;28;20202;-87
2022/08/27 01:37:10;;;;;;;17.13;13.07;;;17.30;99.90;;;;;;5113358;28;20199;-87
2022/08/27 01:39:38;;;;;;;14.70;10.27;;;17.30;99.90;;;;;;5112247;28;20224;-87
2022/08/27 01:42:09;;;;;;;12.68;9.15;;;17.40;99.90;;;;;;5114782;28;20200;-88
2022/08/27 01:44:48;;;;;;;15.07;12.00;;;17.40;99.90;;;;;;5094836;28;20246;-86
2022/08/27 01:47:16;;;;;;;12.80;11.32;;;17.40;99.90;;;;;;5094923;28;20200;-87
2022/08/27 01:49:43;;;;;;;11.85;10.38;;;17.40;99.90;;;;;;5094807;28;20212;-87
2022/08/27 01:52:10;;;;;;;14.55;10.07;;;17.40;99.90;;;;;;5103675;28;20196;-87
2022/08/27 01:54:38;;;;;;;11.38;9.52;;;17.50;99.90;;;;;;5105327;28;20192;-87
2022/08/27 01:57:07;;;;;;;13.15;8.38;;;17.50;99.90;;;;;;5103461;28;20655;-87
2022/08/27 01:59:34;;;;;;;16.40;10.95;;;17.60;99.90;;;;;;5105222;28;20222;-87
2022/08/27 02:02:02;;;;;;;14.50;11.65;;;17.60;99.90;;;;;;5105168;28;20204;-87
2022/08/27 02:04:29;;;;;;;11.25;9.23;;;17.70;99.90;;;;;;5104898;28;20196;-87
2022/08/27 02:06:56;;;;;;;12.07;10.70;;;17.70;99.90;;;;;;5098908;28;20670;-87
2022/08/27 02:09:23;;;;;;;12.90;9.85;;;17.70;99.90;;;;;;5112453;28;20707;-87
2022/08/27 02:11:51;;;;;;;17.23;9.93;;;17.70;99.90;;;;;;5109866;28;20551;-87
2022/08/27 02:14:20;;;;;;;12.40;9.88;;;17.80;99.90;;;;;;5101800;28;20198;-87
2022/08/27 02:16:46;;;;;;;11.82;9.45;;;17.70;99.90;;;;;;5098046;28;20196;-87
2022/08/27 02:19:13;;;;;;;14.55;9.40;;;17.70;99.90;;;;;;5112627;28;20215;-87
2022/08/27 02:21:43;;;;;;;11.68;9.80;;;17.70;99.90;;;;;;5112927;28;20203;-87
2022/08/27 02:24:10;;;;;;;16.48;9.95;;;17.70;99.90;;;;;;5111221;28;20196;-87
2022/08/27 02:26:38;;;;;;;12.38;8.90;;;17.80;99.90;;;;;;5112337;28;20203;-87
2022/08/27 02:29:05;;;;;;;13.95;10.43;;;17.80;99.90;;;;;;5109060;28;20253;-87
2022/08/27 02:31:33;;;;;;;13.77;10.52;;;17.70;99.90;;;;;;5112475;28;20201;-87
2022/08/27 02:34:01;;;;;;;13.57;9.38;;;17.80;99.90;;;;;;5112536;28;20192;-87
2022/08/27 02:36:28;;;;;;;12.52;10.55;;;17.80;99.90;;;;;;5112177;28;20227;-87
2022/08/27 02:38:55;;;;;;;16.00;9.13;;;17.80;99.90;;;;;;5110551;28;20215;-87
2022/08/27 02:41:22;;;;;;;10.57;8.95;;;17.90;99.90;;;;;;5112154;28;20550;-87
2022/08/27 02:43:49;;;;;;;10.00;8.75;;;17.90;99.90;;;;;;5111583;28;20225;-87
2022/08/27 02:46:16;;;;;;;12.07;10.70;;;17.80;99.90;;;;;;5097188;28;20584;-87
2022/08/27 02:48:44;;;;;;;11.70;9.15;;;17.80;99.90;;;;;;5109766;28;20218;-87
2022/08/27 02:51:11;;;;;;;12.07;9.77;;;17.80;99.90;;;;;;5106650;28;20205;-87
2022/08/27 02:53:38;;;;;;;10.23;8.82;;;17.80;99.90;;;;;;5102269;28;20199;-87
2022/08/27 02:56:05;;;;;;;10.10;8.73;;;17.70;99.90;;;;;;5109000;28;20231;-87
2022/08/27 02:58:33;;;;;;;13.43;9.00;;;17.80;99.90;;;;;;5100936;28;20227;-87
2022/08/27 03:01:01;;;;;;;12.48;8.80;;;17.80;99.90;;;;;;5109898;28;20211;-87
2022/08/27 03:03:28;;;;;;;9.18;8.27;;;17.70;99.90;;;;;;5110174;28;20215;-87
2022/08/27 03:05:58;;;;;;;13.00;9.02;;;17.80;99.90;;;;;;5112079;28;20203;-87
2022/08/27 03:08:25;;;;;;;12.40;8.68;;;17.80;99.90;;;;;;5110028;28;20200;-87
2022/08/27 03:10:52;;;;;;;9.50;8.48;;;17.80;99.90;;;;;;5102329;28;20200;-87
2022/08/27 03:13:19;;;;;;;10.52;8.18;;;17.80;99.90;;;;;;5106046;28;20210;-87
2022/08/27 03:15:46;;;;;;;9.50;7.97;;;17.80;99.90;;;;;;5111503;28;20196;-87
2022/08/27 03:18:20;;;;;;;8.27;7.38;;;17.80;99.90;;;;;;5108018;28;20218;-87
2022/08/27 03:20:52;;;;;;;8.25;6.57;;;17.70;99.90;;;;;;5103854;28;20204;-87
2022/08/27 03:23:24;;;;;;;6.82;5.95;;;17.70;99.90;;;;;;5111122;28;20206;-87
2022/08/27 03:25:53;;;;;;;6.43;5.80;;;17.70;99.90;;;;;;5106812;28;20201;-87
2022/08/27 03:28:20;;;;;;;9.50;6.65;;;17.70;99.90;;;;;;5112284;28;20203;-87
2022/08/27 03:30:52;;;;;;;8.18;5.70;;;17.70;99.90;;;;;;5110564;28;20210;-87
2022/08/27 03:33:20;;;;;;;8.48;6.30;;;17.70;99.90;;;;;;5111744;28;20693;-87
2022/08/27 03:35:47;;;;;;;6.28;5.57;;;17.70;99.90;;;;;;5111630;28;20663;-87
2022/08/27 03:38:14;;;;;;;5.80;5.25;;;17.70;99.90;;;;;;5112396;28;20199;-87
2022/08/27 03:40:43;;;;;;;8.40;5.05;;;17.80;99.90;;;;;;5113397;28;20227;-87
2022/08/27 03:43:12;;;;;;;6.07;5.40;;;17.80;99.90;;;;;;5111238;28;20239;-87
2022/08/27 03:45:39;;;;;;;5.43;4.93;;;17.90;99.90;;;;;;5110542;28;20211;-87
2022/08/27 03:48:06;;;;;;;5.43;4.82;;;17.90;99.90;;;;;;5113069;28;20208;-87
2022/08/27 03:50:33;;;;;;;6.90;5.20;;;17.90;99.90;;;;;;5108848;28;20223;-87
2022/08/27 03:53:00;;;;;;;8.40;5.63;;;18.00;99.90;;;;;;5106304;28;20735;-87
2022/08/27 03:55:27;;;;;;;6.28;5.00;;;18.00;99.90;;;;;;5108355;28;20196;-87
2022/08/27 03:57:55;;;;;;;10.93;6.18;;;17.90;99.90;;;;;;5103884;28;20200;-87
2022/08/27 04:00:24;;;;;;;7.45;5.28;;;18.00;99.90;;;;;;5106284;28;20224;-87
2022/08/27 04:02:52;;;;;;;6.50;5.38;;;18.00;99.90;;;;;;5108537;28;20204;-87
2022/08/27 04:05:18;;;;;;;5.95;5.25;;;17.90;99.90;;;;;;5113633;28;20555;-86
2022/08/27 04:07:45;;;;;;;7.63;5.30;;;18.00;99.90;;;;;;5107418;28;20650;-87
2022/08/27 04:10:13;;;;;;;8.40;5.28;;;18.00;99.90;;;;;;5110726;28;20290;-87
2022/08/27 04:12:40;;;;;;;6.65;4.95;;;18.00;99.90;;;;;;5116942;28;20196;-87
2022/08/27 04:15:10;;;;;;;7.22;4.57;;;18.10;99.90;;;;;;5111305;28;20211;-87
2022/08/27 04:17:37;;;;;;;5.70;5.10;;;18.20;99.90;;;;;;5114130;28;20202;-87
2022/08/27 04:20:06;;;;;;;6.45;4.72;;;18.20;99.90;;;;;;5114499;28;20233;-87
2022/08/27 04:22:33;;;;;;;7.55;4.85;;;18.20;99.90;;;;;;5109635;28;20204;-87
2022/08/27 04:25:03;;;;;;;5.93;5.28;;;18.10;99.90;;;;;;5112572;28;20655;-87
2022/08/27 04:27:30;;;;;;;6.60;5.28;;;18.00;99.90;;;;;;5112744;28;20223;-87
2022/08/27 04:29:58;;;;;;;6.05;5.03;;;18.00;99.90;;;;;;5113592;28;20204;-86
2022/08/27 04:32:27;;;;;;;6.15;5.05;;;18.00;99.90;;;;;;5111193;28;20210;-87
2022/08/27 04:34:55;;;;;;;5.88;4.80;;;18.00;99.90;;;;;;5114584;28;20211;-87
2022/08/27 04:37:22;;;;;;;5.10;4.60;;;18.00;99.90;;;;;;5114567;28;20293;-86
2022/08/27 04:39:49;;;;;;;5.85;4.55;;;18.10;99.90;;;;;;5118120;28;20228;-86
2022/08/27 04:42:18;;;;;;;5.65;5.07;;;18.20;99.90;;;;;;5110919;28;20204;-86
2022/08/27 04:44:46;;;;;;;5.40;4.90;;;18.20;99.90;;;;;;5110303;28;20224;-87
2022/08/27 04:47:14;;;;;;;5.28;4.78;;;18.30;99.90;;;;;;5116190;28;20222;-87
2022/08/27 04:49:42;;;;;;;5.45;4.68;;;18.30;99.90;;;;;;5104188;28;20196;-87
2022/08/27 04:52:09;;;;;;;7.28;4.93;;;18.40;99.90;;;;;;5116449;27;20226;-86
2022/08/27 04:54:36;;;;;;;5.55;5.00;;;18.40;99.90;;;;;;5104150;28;20695;-86
2022/08/27 04:57:05;;;;;;;5.38;4.25;;;18.50;99.90;;;;;;5111323;28;20553;-86
2022/08/27 04:59:38;;;;;;;9.63;5.35;;;18.40;99.90;;;;;;5110009;28;20228;-86
2022/08/27 05:02:09;;;;;;;6.70;6.00;;;18.40;99.90;;;;;;5105409;28;20210;-86
2022/08/27 05:04:38;;;;;;;6.20;5.47;;;18.30;99.90;;;;;;5107000;28;20235;-86
2022/08/27 05:07:10;;;;;;;6.60;5.47;;;18.40;99.90;;;;;;5105113;28;20205;-86
2022/08/27 05:09:38;;;;;;;6.05;5.45;;;18.50;99.90;;;;;;5110480;28;20290;-86
2022/08/27 05:12:06;;;;;;;5.60;5.10;;;18.50;99.90;;;;;;5101776;27;20655;-86
2022/08/27 05:14:33;;;;;;;8.80;5.60;;;18.50;99.90;;;;;;5118010;28;20200;-87
2022/08/27 05:17:02;;;;;;;7.90;6.03;;;18.40;99.90;;;;;;5116121;28;20298;-86
2022/08/27 05:19:38;;;;;;;6.53;5.93;;;18.40;99.90;;;;;;5117547;28;20227;-87
2022/08/27 05:22:05;;;;;;;6.07;5.47;;;18.40;99.90;;;;;;5116787;28;20188;-86
2022/08/27 05:24:33;;;;;;;6.93;5.00;;;18.40;99.90;;;;;;5106813;28;20194;-86
2022/08/27 05:27:00;;;;;;;5.22;4.72;;;18.40;99.90;;;;;;5105094;28;20216;-86
2022/08/27 05:29:38;;;;;;;6.70;4.70;;;18.60;99.90;;;;;;5114244;28;20206;-86
2022/08/27 05:32:05;;;;;;;7.53;4.40;;;18.70;99.90;;;;;;5113967;28;20278;-87
2022/08/27 05:34:32;;;;;;;5.65;4.55;;;18.70;99.90;;;;;;5101467;28;20193;-87
2022/08/27 05:36:59;;;;;;;5.25;4.75;;;18.70;99.90;;;;;;5109690;28;20287;-87
2022/08/27 05:39:26;;;;;;;6.72;4.57;;;18.80;99.90;;;;;;5105777;28;20242;-87
2022/08/27 05:41:56;;;;;;;5.95;4.50;;;18.90;99.90;;;;;;5116044;28;20196;-87
2022/08/27 05:44:26;;;;;;;7.75;3.83;;;18.90;99.90;;;;;;5100458;28;20209;-86
2022/08/27 05:46:53;;;;;;;4.45;3.67;;;18.90;99.90;;;;;;5113564;27;20196;-87
2022/08/27 05:49:20;;;;;;;5.18;4.30;;;18.90;99.90;;;;;;5111866;28;20284;-87
2022/08/27 05:51:47;;;;;;;6.05;4.40;;;18.90;99.90;;;;;;5113398;28;20283;-87
2022/08/27 05:54:18;;;;;;;4.32;3.97;;;19.00;99.90;;;;;;5116927;28;20633;-87
2022/08/27 05:56:50;;;;;;;4.70;4.15;;;19.10;99.90;;;;;;5115612;28;20211;-85
2022/08/27 06:02:04;;;;;;;6.90;4.20;;;19.20;99.70;;;;;;5110789;28;20260;-84
2022/08/27 06:04:37;;;;;;;5.82;3.80;;;19.40;99.30;;;;;;5109336;28;20210;-85
2022/08/27 06:07:05;;;;;;;5.50;4.13;;;19.40;99.40;;;;;;5118461;28;20211;-84
2022/08/27 06:09:32;;;;;;;5.03;3.67;;;19.40;99.60;;;;;;5105975;28;20281;-84
2022/08/27 06:12:00;;;;;;;3.83;3.28;;;19.50;99.10;;;;;;5114442;28;20210;-85
2022/08/27 06:14:28;;;;;;;4.30;3.40;;;19.60;98.30;;;;;;5105740;28;20200;-85
2022/08/27 06:16:57;;;;;;;4.38;3.60;;;19.70;98.00;;;;;;5110546;28;20203;-85
2022/08/27 06:19:24;;;;;;;3.85;3.38;;;19.80;98.00;;;;;;5104433;28;20225;-85
2022/08/27 06:21:51;;;;;;;3.90;3.53;;;19.90;97.80;;;;;;5112935;28;20203;-85
2022/08/27 06:24:18;;;;;;;3.60;3.30;;;20.00;97.30;;;;;;5109405;28;20203;-85
2022/08/27 06:26:45;;;;;;;5.57;3.47;;;20.00;97.00;;;;;;5111016;28;20662;-85
2022/08/27 06:29:13;;;;;;;3.40;3.10;;;20.10;97.00;;;;;;5109449;28;20192;-85
2022/08/27 06:31:41;;;;;;;4.30;3.33;;;20.00;97.10;;;;;;5110288;28;20207;-85
2022/08/27 06:34:09;;;;;;;3.35;3.05;;;20.10;96.10;;;;;;5108966;28;20196;-85
2022/08/27 06:36:44;;;;;;;4.90;3.30;;;20.20;95.90;;;;;;5111230;28;20214;-85
2022/08/27 06:39:14;;;;;;;6.05;3.50;;;20.50;95.30;;;;;;5108199;28;20206;-85
2022/08/27 06:41:44;;;;;;;3.78;3.00;;;20.70;94.30;;;;;;5105684;28;20219;-85
2022/08/27 06:44:12;;;;;;;3.92;3.53;;;20.80;93.80;;;;;;5110467;28;20714;-85
2022/08/27 06:46:45;;;;;;;8.13;3.67;;;20.70;93.80;;;;;;5113339;28;20208;-86
2022/08/27 06:49:13;;;;;;;4.78;3.88;;;20.60;94.70;;;;;;5109525;28;20203;-85
2022/08/27 06:51:43;;;;;;;4.15;3.75;;;20.50;95.20;;;;;;5107909;28;20238;-85
2022/08/27 06:54:11;;;;;;;4.53;4.13;;;20.60;94.60;;;;;;5111321;28;20204;-85
2022/08/27 06:56:44;;;;;;;4.97;4.30;;;20.40;95.40;;;;;;5110433;28;20200;-85
2022/08/27 06:59:14;;;;;;;5.35;4.85;;;20.40;94.90;;;;;;5108753;28;20535;-85
2022/08/27 07:01:49;;;;;;;23.50;20.95;;;20.50;95.80;;;;;;5112744;28;20208;-85
2022/08/27 07:04:22;;;;;;;22.30;18.75;;;20.70;95.60;;;;;;5110126;28;20208;-85
2022/08/27 07:06:50;;;;;;;14.65;13.23;;;20.70;95.40;;;;;;5109515;28;20211;-85
2022/08/27 07:09:21;;;;;;;24.42;21.88;;;20.50;95.00;;;;;;5112582;28;20204;-85
2022/08/27 07:11:48;;;;;;;17.85;15.13;;;20.50;95.20;;;;;;5097881;28;20208;-85
2022/08/27 07:14:20;;;;;;;13.80;12.40;;;20.50;95.50;;;;;;5104612;28;20570;-85
2022/08/27 07:16:50;;;;;;;14.95;13.35;;;20.30;95.50;;;;;;5093280;28;20208;-85
2022/08/27 07:19:17;;;;;;;17.00;15.30;;;20.30;95.90;;;;;;5103408;28;20208;-85
2022/08/27 07:21:44;;;;;;;7.60;6.65;;;20.30;95.60;;;;;;5093903;28;20323;-85
2022/08/27 07:24:11;;;;;;;7.95;6.93;;;20.30;95.30;;;;;;5104455;28;20200;-85
2022/08/27 07:26:41;;;;;;;10.18;8.63;;;20.30;95.60;;;;;;5101953;28;20200;-85
2022/08/27 07:29:11;;;;;;;8.68;7.47;;;20.20;96.10;;;;;;5104193;28;20709;-85
2022/08/27 07:31:38;;;;;;;8.75;6.90;;;20.30;95.80;;;;;;5094149;28;20215;-85
2022/08/27 07:34:07;;;;;;;8.25;6.63;;;20.40;95.50;;;;;;5093715;28;20231;-85
2022/08/27 07:36:39;;;;;;;7.10;6.32;;;20.40;95.10;;;;;;5094370;28;20193;-85
2022/08/27 07:39:06;;;;;;;8.07;6.50;;;20.60;94.40;;;;;;5093922;28;20200;-85
2022/08/27 07:44:23;;;;;;;7.03;6.32;;;20.50;94.30;;;;;;5113748;28;20218;-85
2022/08/27 07:44:26;;;;;;;7.25;6.53;;;20.60;94.10;;;;;;5113497;28;20239;-85
2022/08/27 07:46:57;;;;;;;8.38;6.43;;;20.50;94.60;;;;;;5108366;28;20208;-85
2022/08/27 07:49:30;;;;;;;6.38;5.80;;;20.50;94.50;;;;;;5114190;28;20792;-84
2022/08/27 07:51:59;;;;;;;7.43;6.72;;;20.60;95.00;;;;;;5100091;28;20200;-84
2022/08/27 07:54:35;;;;;;;6.68;6.00;;;20.70;94.70;;;;;;5103028;28;20230;-84
2022/08/27 07:57:03;;;;;;;6.75;6.05;;;20.80;94.40;;;;;;5118834;28;20196;-84
2022/08/27 07:59:30;;;;;;;6.57;5.97;;;20.80;93.20;;;;;;5111045;28;20643;-84
2022/08/27 08:02:03;;;;;;;6.53;5.93;;;20.80;94.00;;;;;;5119226;28;20207;-84
2022/08/27 08:04:31;;;;;;;6.40;5.80;;;21.00;93.30;;;;;;5118719;28;20202;-84
2022/08/27 08:06:58;;;;;;;6.70;6.07;;;20.90;93.60;;;;;;5117289;28;20660;-84
2022/08/27 08:09:25;;;;;;;6.28;5.63;;;21.00;92.90;;;;;;5112570;28;20208;-84
2022/08/27 08:11:52;;;;;;;6.28;5.50;;;21.20;92.10;;;;;;5120362;28;20192;-84
2022/08/27 08:14:20;;;;;;;5.93;5.43;;;21.30;91.60;;;;;;5112954;28;20543;-84
2022/08/27 08:16:48;;;;;;;9.02;5.28;;;21.50;91.50;;;;;;5116068;28;20196;-84
2022/08/27 08:19:20;;;;;;;5.82;5.32;;;21.60;90.90;;;;;;5103153;28;20200;-84
2022/08/27 08:21:49;;;;;;;6.45;5.38;;;21.60;91.20;;;;;;5108439;28;20242;-84
2022/08/27 08:24:15;;;;;;;6.68;5.47;;;21.70;91.20;;;;;;5109519;28;20211;-84
2022/08/27 08:26:50;;;;;;;5.53;5.03;;;21.60;90.70;;;;;;5114932;28;20550;-83
2022/08/27 08:29:17;;;;;;;5.85;5.25;;;21.60;90.90;;;;;;5107476;28;20200;-84
2022/08/27 08:31:44;;;;;;;5.28;4.82;;;21.60;91.30;;;;;;5115071;28;20271;-84
2022/08/27 08:34:11;;;;;;;5.60;4.63;;;21.70;91.00;;;;;;5113631;28;20243;-84
2022/08/27 08:36:52;;;;;;;7.10;5.00;;;21.80;91.10;;;;;;5115943;28;20292;-84
2022/08/27 08:39:20;;;;;;;6.53;4.75;;;21.80;90.80;;;;;;5108047;28;20197;-84
2022/08/27 08:41:53;;;;;;;6.78;4.88;;;21.90;90.70;;;;;;5111758;28;20234;-84
2022/08/27 08:44:29;;;;;;;6.20;4.53;;;22.10;90.00;;;;;;5115061;28;20223;-84
2022/08/27 08:47:02;;;;;;;6.90;4.68;;;22.10;89.50;;;;;;5104559;28;20723;-84
2022/08/27 08:49:45;;;;;;;8.70;6.63;;;22.10;90.20;;;;;;5106247;28;20211;-84
2022/08/27 08:52:36;;;;;;;9.35;5.53;;;21.90;90.90;;;;;;5111371;28;20221;-84
2022/08/27 08:55:17;;;;;;;4.70;4.07;;;21.80;91.00;;;;;;5109022;28;20199;-84
2022/08/27 08:57:58;;;;;;;7.72;5.10;;;21.70;90.90;;;;;;5107987;28;20203;-84
2022/08/27 09:00:26;;;;;;;8.15;6.38;;;21.60;91.30;;;;;;5110005;28;20220;-84
2022/08/27 09:02:54;;;;;;;7.63;4.78;;;21.60;91.40;;;;;;5114852;28;20284;-84
2022/08/27 09:05:33;;;;;;;6.70;4.93;;;21.70;91.20;;;;;;5109619;28;20200;-84
2022/08/27 09:08:15;;;;;;;5.28;4.50;;;21.70;90.60;;;;;;5102372;28;20558;-84
2022/08/27 09:10:45;;;;;;;4.85;4.35;;;21.80;90.40;;;;;;5108048;28;20207;-84
2022/08/27 09:13:24;;;;;;;4.90;4.47;;;21.90;90.40;;;;;;5114135;28;20192;-84
2022/08/27 09:15:56;;;;;;;7.45;4.30;;;22.00;89.40;;;;;;5106783;28;20211;-84
2022/08/27 09:18:24;;;;;;;5.57;4.88;;;22.20;89.80;;;;;;5118551;27;20216;-84
2022/08/27 09:20:59;;;;;;;5.20;4.70;;;22.20;90.50;;;;;;5098293;28;20709;-84
2022/08/27 09:23:37;;;;;;;4.88;4.32;;;22.50;88.40;;;;;;5102267;28;20558;-82
2022/08/27 09:26:04;;;;;;;6.32;5.72;;;23.10;81.70;;;;;;5113202;28;20200;-80
2022/08/27 09:31:17;;;;;;;9.70;8.77;;;23.20;80.30;;;;;;5100887;28;20291;-80
2022/08/27 09:33:45;;;;;;;5.55;4.47;;;23.20;81.40;;;;;;5115329;28;20200;-80
2022/08/27 09:36:14;;;;;;;5.95;5.22;;;23.30;79.20;;;;;;5106320;28;20196;-80
2022/08/27 09:38:55;;;;;;;57.13;51.53;;;22.90;79.40;;;;;;5103631;28;20218;-80
2022/08/27 09:41:25;;;;;;;7.78;6.47;;;22.80;81.60;;;;;;5105129;28;20225;-81
2022/08/27 09:44:00;;;;;;;18.55;16.73;;;22.90;80.40;;;;;;5111713;28;20224;-80
2022/08/27 09:46:28;;;;;;;9.40;8.02;;;23.20;78.70;;;;;;5112529;28;20206;-80
2022/08/27 09:48:56;;;;;;;7.57;6.63;;;23.40;77.90;;;;;;5112049;28;20203;-81
2022/08/27 09:51:27;;;;;;;6.90;5.75;;;23.20;78.70;;;;;;5100378;28;20674;-81
2022/08/27 09:53:59;;;;;;;8.18;7.32;;;23.30;78.60;;;;;;5103646;28;20200;-80
2022/08/27 09:56:30;;;;;;;6.63;5.57;;;23.50;78.90;;;;;;5108587;28;20196;-80
2022/08/27 09:59:03;;;;;;;5.70;4.97;;;23.50;76.50;;;;;;5110679;28;20659;-83
2022/08/27 10:01:33;;;;;;;6.00;5.40;;;23.70;69.60;;;;;;5108235;28;20230;-83
2022/08/27 10:04:06;;;;;;;6.35;5.35;;;23.90;59.70;;;;;;5110477;28;20538;-83
2022/08/27 10:06:45;;;;;;;6.40;5.80;;;24.10;65.50;;;;;;5104014;28;20189;-83
2022/08/27 10:09:23;;;;;;;4.50;4.10;;;24.40;59.90;;;;;;5102390;28;20253;-83
2022/08/27 10:11:57;;;;;;;8.82;7.95;;;24.30;59.90;;;;;;5116003;28;20222;-83
2022/08/27 10:14:30;;;;;;;105.57;95.32;;;24.50;60.00;;;;;;5105655;28;20206;-83
2022/08/27 10:17:15;;;;;;;8.23;7.43;;;24.10;65.30;;;;;;5116786;28;20636;-82
2022/08/27 10:20:02;;;;;;;7.22;6.32;;;24.10;68.30;;;;;;5108756;28;20251;-82
2022/08/27 10:22:37;;;;;;;8.90;8.02;;;24.30;62.60;;;;;;5113996;28;20219;-85
2022/08/27 10:25:16;;;;;;;6.75;6.05;;;24.30;59.80;;;;;;5115135;28;20226;-85
2022/08/27 10:27:57;;;;;;;13.52;12.25;;;24.20;59.70;;;;;;5117454;28;20650;-82
2022/08/27 10:30:31;;;;;;;5.63;4.70;;;23.90;62.30;;;;;;5118553;28;20288;-83
2022/08/27 10:33:22;;;;;;;9.35;8.48;;;24.00;59.50;;;;;;5119625;28;20234;-83
2022/08/27 10:35:55;;;;;;;5.20;4.70;;;24.00;61.30;;;;;;5120765;28;20693;-83
2022/08/27 10:38:37;;;;;;;15.25;13.63;;;24.10;59.60;;;;;;5118143;28;20195;-83
2022/08/27 10:41:15;;;;;;;7.82;7.10;;;23.90;65.40;;;;;;5115703;28;20220;-82
2022/08/27 10:44:15;;;;;;;9.95;8.25;;;24.10;59.70;;;;;;5116937;28;20689;-82
2022/08/27 10:47:07;;;;;;;9.25;7.82;;;24.20;59.80;;;;;;5108918;28;20210;-80
2022/08/27 10:49:44;;;;;;;5.15;4.30;;;24.40;59.90;;;;;;5120429;28;20192;-83
2022/08/27 10:52:17;;;;;;;4.88;4.40;;;24.30;59.80;;;;;;5121260;28;20206;-82
2022/08/27 10:54:52;;;;;;;5.82;4.40;;;24.30;55.60;;;;;;5119184;28;20338;-82
2022/08/27 10:57:28;;;;;;;5.45;4.40;;;24.30;54.10;;;;;;5119297;28;20673;-82
2022/08/27 11:00:06;;;;;;;5.68;5.18;;;24.40;57.50;;;;;;5118845;28;20207;-82
2022/08/27 11:02:37;;;;;;;5.20;4.40;;;24.30;53.90;;;;;;5118901;28;20203;-82
2022/08/27 11:05:13;;;;;;;6.35;5.75;;;24.40;53.10;;;;;;5118743;28;20201;-82
2022/08/27 11:07:44;;;;;;;8.05;4.60;;;24.50;58.90;;;;;;5118381;28;20199;-83
2022/08/27 11:10:20;;;;;;;4.70;3.90;;;24.70;51.50;;;;;;5116414;28;20200;-82
2022/08/27 11:12:52;;;;;;;5.05;4.25;;;25.00;52.30;;;;;;5118876;28;20207;-82
2022/08/27 11:15:25;;;;;;;6.35;4.18;;;25.20;45.30;;;;;;5117905;28;20200;-82
2022/08/27 11:17:58;;;;;;;4.65;4.22;;;25.60;41.70;;;;;;5109320;28;20203;-82
2022/08/27 11:20:40;;;;;;;4.60;3.83;;;25.90;41.70;;;;;;5102620;28;20573;-82
2022/08/27 11:23:12;;;;;;;4.65;4.10;;;26.00;38.70;;;;;;5109232;28;20237;-82
2022/08/27 11:25:50;;;;;;;5.40;3.83;;;26.20;43.40;;;;;;5117028;28;20192;-83
2022/08/27 11:28:20;;;;;;;5.40;3.42;;;25.60;38.00;;;;;;5119297;28;20287;-82
2022/08/27 11:30:58;;;;;;;4.05;3.65;;;25.20;40.30;;;;;;5117351;28;20200;-82
2022/08/27 11:33:30;;;;;;;4.55;4.15;;;25.00;45.50;;;;;;5117561;28;20210;-85
2022/08/27 11:36:16;;;;;;;4.85;4.15;;;24.80;46.90;;;;;;5119186;28;20206;-82
2022/08/27 11:38:54;;;;;;;6.40;4.38;;;24.80;45.30;;;;;;5120038;28;20195;-83
2022/08/27 11:41:50;;;;;;;6.13;4.45;;;24.70;48.10;;;;;;5106467;28;20227;-83
2022/08/27 11:44:21;;;;;;;6.40;4.10;;;25.40;46.10;;;;;;5054748;28;20222;-82
2022/08/27 11:47:07;;;;;;;7.18;4.40;;;25.90;38.00;;;;;;5055943;28;20193;-82
2022/08/27 11:49:43;;;;;;;4.88;4.47;;;26.10;37.50;;;;;;5057603;28;20206;-83
2022/08/27 11:52:12;;;;;;;5.18;4.20;;;26.20;37.00;;;;;;5056276;28;20208;-82
2022/08/27 11:54:48;;;;;;;5.70;4.00;;;26.30;36.70;;;;;;5054673;28;20293;-83
2022/08/27 11:57:26;;;;;;;5.65;4.25;;;26.20;35.30;;;;;;5057122;28;20211;-82
2022/08/27 12:00:18;;;;;;;3.75;3.45;;;26.10;37.00;;;;;;5055433;28;20204;-82
2022/08/27 12:02:57;;;;;;;4.10;3.70;;;26.10;36.10;;;;;;5055469;28;20225;-83
2022/08/27 12:05:34;;;;;;;4.63;3.72;;;25.90;36.80;;;;;;5055379;28;20293;-82
2022/08/27 12:08:27;;;;;;;6.15;4.85;;;25.90;35.50;;;;;;5054074;28;20194;-82
2022/08/27 12:11:23;;;;;;;4.60;3.97;;;25.80;36.70;;;;;;5045288;28;20302;-82
2022/08/27 12:13:57;;;;;;;5.13;4.18;;;25.40;39.70;;;;;;5054061;28;20212;-82
2022/08/27 12:16:34;;;;;;;4.60;3.70;;;25.30;42.00;;;;;;5054666;28;20206;-83
2022/08/27 12:19:20;;;;;;;6.93;4.20;;;25.20;36.30;;;;;;5050198;28;20216;-80
2022/08/27 12:22:03;;;;;;;5.53;3.50;;;25.00;39.90;;;;;;5096783;28;20227;-82
2022/08/27 12:24:49;;;;;;;4.80;4.30;;;25.20;45.70;;;;;;5114581;28;20206;-81
2022/08/27 12:27:30;;;;;;;8.18;3.90;;;25.20;40.90;;;;;;5055489;28;20198;-81
2022/08/27 12:30:21;;;;;;;6.65;4.10;;;25.00;42.90;;;;;;5058076;28;20210;-81
2022/08/27 12:33:04;;;;;;;4.47;3.60;;;25.10;40.20;;;;;;5056019;28;20205;-81
2022/08/27 12:35:40;;;;;;;4.28;3.75;;;25.30;39.30;;;;;;5046925;28;20202;-81
2022/08/27 12:38:15;;;;;;;4.45;3.38;;;25.60;38.60;;;;;;5045984;28;20272;-81
2022/08/27 12:40:47;;;;;;;5.30;3.85;;;25.80;36.70;;;;;;5040616;28;20202;-81
2022/08/27 12:43:19;;;;;;;5.15;4.18;;;25.80;34.70;;;;;;5047207;28;20221;-81
2022/08/27 12:45:49;;;;;;;5.40;3.78;;;26.00;36.80;;;;;;5058523;28;20205;-81
2022/08/27 12:48:20;;;;;;;5.05;3.58;;;25.90;33.30;;;;;;5057491;28;20206;-81
2022/08/27 12:50:52;;;;;;;6.18;3.88;;;25.60;35.90;;;;;;5054824;28;20201;-81
2022/08/27 12:53:43;;;;;;;5.93;4.03;;;25.50;36.50;;;;;;5052758;28;20225;-81
2022/08/27 12:56:38;;;;;;;6.00;4.65;;;25.40;36.40;;;;;;5052137;28;20199;-81
2022/08/27 12:59:22;;;;;;;4.97;4.07;;;25.30;36.40;;;;;;5046581;28;20665;-81
2022/08/27 13:01:59;;;;;;;5.68;3.60;;;25.10;36.30;;;;;;5049291;28;20221;-81
2022/08/27 13:04:30;;;;;;;5.15;3.88;;;25.10;36.30;;;;;;5084593;28;20203;-81
2022/08/27 13:06:57;;;;;;;4.63;3.95;;;24.90;38.30;;;;;;5113774;28;20226;-81
2022/08/27 13:09:30;;;;;;;4.07;3.40;;;24.80;39.40;;;;;;5116867;28;20204;-81